createdAt,value
2023-03-30T00:00:23.603Z,48.84
2023-03-30T00:01:21.279Z,49.30
2023-03-30T00:02:19.067Z,48.98
2023-03-30T00:03:19.465Z,48.82
2023-03-30T00:04:18.810Z,48.94
2023-03-30T00:05:17.688Z,49.75
2023-03-30T00:06:26.523Z,49.70
2023-03-30T00:07:23.263Z,50.00
2023-03-30T00:08:20.322Z,49.38
2023-03-30T00:09:17.108Z,50.36
2023-03-30T00:10:19.642Z,49.38
2023-03-30T00:11:17.384Z,50.37
2023-03-30T00:12:20.687Z,50.16
2023-03-30T00:13:18.064Z,50.46
2023-03-30T00:14:17.927Z,50.25
2023-03-30T00:15:17.497Z,49.74
2023-03-30T00:16:14.796Z,49.73
2023-03-30T00:17:12.270Z,50.62
2023-03-30T00:18:09.454Z,50.18
2023-03-30T00:19:06.255Z,50.33
2023-03-30T00:20:05.482Z,50.02
2023-03-30T00:21:04.132Z,50.33
2023-03-30T00:22:01.265Z,50.45
2023-03-30T00:22:58.750Z,50.78
2023-03-30T00:23:55.518Z,50.70
2023-03-30T00:24:52.377Z,50.54
2023-03-30T00:25:49.444Z,50.46
2023-03-30T00:26:46.419Z,50.44
2023-03-30T00:27:43.880Z,52.02
2023-03-30T00:28:41.076Z,51.56
2023-03-30T00:29:37.903Z,51.97
2023-03-30T00:30:34.801Z,51.56
2023-03-30T00:31:31.681Z,52.10
2023-03-30T00:32:28.660Z,52.85
2023-03-30T00:33:41.523Z,52.17
2023-03-30T00:34:41.266Z,53.54
2023-03-30T00:35:38.116Z,52.73
2023-03-30T00:36:37.175Z,52.93
2023-03-30T00:37:37.386Z,53.69
2023-03-30T00:38:34.323Z,53.58
2023-03-30T00:39:31.059Z,53.75
2023-03-30T00:40:29.618Z,54.38
2023-03-30T00:41:26.419Z,54.37
2023-03-30T00:42:23.928Z,54.80
2023-03-30T00:43:23.149Z,54.71
2023-03-30T00:44:57.326Z,55.82
2023-03-30T00:45:56.329Z,55.89
2023-03-30T00:46:53.230Z,55.88
2023-03-30T00:48:07.929Z,56.13
2023-03-30T00:49:10.292Z,57.53
2023-03-30T00:50:09.524Z,57.26
2023-03-30T00:51:10.794Z,56.68
2023-03-30T00:52:10.289Z,57.88
2023-03-30T00:53:23.046Z,57.52
2023-03-30T00:54:20.936Z,57.94
2023-03-30T00:55:22.138Z,57.90
2023-03-30T00:56:27.156Z,58.68
2023-03-30T00:57:27.181Z,58.74
2023-03-30T00:58:26.497Z,58.13
2023-03-30T00:59:23.323Z,59.08
2023-03-30T01:00:20.453Z,58.98
2023-03-30T01:01:25.907Z,59.45
2023-03-30T01:02:23.431Z,59.49
2023-03-30T01:03:27.432Z,59.55
2023-03-30T01:04:25.961Z,59.12
2023-03-30T01:05:24.331Z,59.41
2023-03-30T01:06:29.937Z,59.02
2023-03-30T01:07:26.960Z,59.78
2023-03-30T01:08:27.376Z,58.71
2023-03-30T01:09:26.428Z,58.89
2023-03-30T01:10:23.311Z,58.72
2023-03-30T01:11:20.167Z,58.69
2023-03-30T01:12:17.272Z,59.10
2023-03-30T01:13:15.651Z,59.74
2023-03-30T01:14:16.402Z,59.64
2023-03-30T01:15:13.278Z,59.60
2023-03-30T01:16:24.699Z,59.64
2023-03-30T01:17:32.821Z,60.16
2023-03-30T01:19:24.593Z,60.27
2023-03-30T01:20:42.998Z,59.72
2023-03-30T01:22:07.998Z,59.88
2023-03-30T01:23:28.959Z,60.62
2023-03-30T01:25:02.987Z,60.10
2023-03-30T01:26:00.464Z,60.97
2023-03-30T01:27:40.205Z,60.58
2023-03-30T01:28:52.491Z,60.03
2023-03-30T01:30:14.309Z,59.75
2023-03-30T01:31:42.145Z,61.08
2023-03-30T01:32:54.486Z,60.33
2023-03-30T01:34:01.823Z,60.06
2023-03-30T01:35:27.961Z,61.17
2023-03-30T01:36:39.542Z,61.46
2023-03-30T01:38:04.110Z,61.36
2023-03-30T01:39:13.235Z,61.52
2023-03-30T01:40:23.785Z,61.36
2023-03-30T01:41:56.789Z,61.68
2023-03-30T01:43:18.162Z,63.36
2023-03-30T01:44:50.239Z,63.73
2023-03-30T01:45:51.479Z,63.76
2023-03-30T01:47:19.171Z,63.86
2023-03-30T01:48:29.332Z,64.91
2023-03-30T01:49:46.351Z,64.07
2023-03-30T01:50:57.549Z,64.37
2023-03-30T01:52:17.750Z,64.50
2023-03-30T01:53:20.702Z,64.76
2023-03-30T01:54:24.207Z,65.28
2023-03-30T01:55:47.346Z,64.61
2023-03-30T01:56:53.162Z,64.81
2023-03-30T01:58:04.214Z,64.38
2023-03-30T01:59:06.872Z,65.68
2023-03-30T02:00:14.945Z,64.57
2023-03-30T02:01:17.564Z,65.31
2023-03-30T02:02:18.666Z,64.47
2023-03-30T02:03:22.677Z,65.65
2023-03-30T02:04:24.656Z,65.16
2023-03-30T02:05:24.660Z,65.28
2023-03-30T02:06:38.833Z,64.98
2023-03-30T02:07:40.036Z,64.72
2023-03-30T02:08:39.837Z,65.72
2023-03-30T02:09:40.881Z,65.95
2023-03-30T02:10:41.388Z,65.41
2023-03-30T02:11:42.673Z,65.96
2023-03-30T02:12:41.156Z,65.40
2023-03-30T02:13:40.899Z,65.58
2023-03-30T02:14:40.601Z,66.51
2023-03-30T02:15:44.720Z,67.29
2023-03-30T02:16:47.063Z,67.05
2023-03-30T02:17:46.074Z,66.09
2023-03-30T02:18:43.104Z,66.77
2023-03-30T02:19:39.970Z,66.54
2023-03-30T02:20:39.123Z,67.10
2023-03-30T02:21:36.682Z,66.92
2023-03-30T02:22:33.617Z,66.49
2023-03-30T02:23:37.260Z,67.71
2023-03-30T02:24:36.653Z,67.81
2023-03-30T02:25:38.663Z,68.62
2023-03-30T02:26:36.951Z,69.81
2023-03-30T02:27:35.064Z,70.12
2023-03-30T02:28:31.899Z,70.98
2023-03-30T02:29:29.172Z,71.81
2023-03-30T02:30:34.527Z,71.91
2023-03-30T02:31:31.587Z,72.00
2023-03-30T02:32:44.452Z,72.25
2023-03-30T02:33:53.455Z,73.15
2023-03-30T02:35:07.334Z,73.04
2023-03-30T02:36:27.418Z,73.09
2023-03-30T02:37:58.152Z,71.70
2023-03-30T02:39:07.091Z,72.33
2023-03-30T02:40:33.865Z,72.43
2023-03-30T02:42:05.301Z,72.81
2023-03-30T02:43:37.977Z,73.74
2023-03-30T02:44:43.812Z,74.27
2023-03-30T02:45:52.744Z,74.19
2023-03-30T02:47:02.926Z,74.06
2023-03-30T02:48:15.562Z,74.58
2023-03-30T02:49:18.838Z,75.72
2023-03-30T02:50:28.345Z,75.21
2023-03-30T02:51:57.486Z,76.40
2023-03-30T02:53:01.988Z,76.54
2023-03-30T02:54:46.941Z,75.38
2023-03-30T02:56:06.124Z,75.63
2023-03-30T02:57:09.044Z,76.62
2023-03-30T02:58:19.755Z,77.70
2023-03-30T02:59:34.296Z,77.36
2023-03-30T03:00:31.041Z,79.04
2023-03-30T03:01:39.748Z,79.39
2023-03-30T03:02:47.708Z,80.50
2023-03-30T03:03:51.951Z,80.49
2023-03-30T03:04:52.933Z,80.08
2023-03-30T03:05:56.203Z,81.08
2023-03-30T03:06:55.812Z,81.35
2023-03-30T03:07:53.807Z,81.40
2023-03-30T03:08:50.840Z,81.78
2023-03-30T03:09:48.346Z,82.62
2023-03-30T03:10:45.098Z,82.69
2023-03-30T03:11:41.891Z,83.94
2023-03-30T03:12:39.322Z,83.09
2023-03-30T03:13:37.537Z,84.71
2023-03-30T03:14:34.326Z,85.89
2023-03-30T03:15:32.022Z,86.38
2023-03-30T03:16:28.825Z,87.99
2023-03-30T03:17:29.635Z,88.40
2023-03-30T03:18:26.533Z,88.65
2023-03-30T03:19:23.605Z,87.94
2023-03-30T03:20:20.454Z,87.72
2023-03-30T03:21:17.363Z,87.76
2023-03-30T03:22:14.980Z,88.99
2023-03-30T03:23:11.772Z,88.56
2023-03-30T03:24:08.745Z,88.59
2023-03-30T03:25:05.984Z,88.23
2023-03-30T03:26:04.475Z,90.45
2023-03-30T03:27:01.247Z,90.08
2023-03-30T03:27:58.402Z,89.79
2023-03-30T03:28:55.256Z,90.47
2023-03-30T03:29:52.020Z,90.48
2023-03-30T03:30:49.572Z,90.70
2023-03-30T03:31:46.369Z,91.62
2023-03-30T03:32:43.166Z,91.97
2023-03-30T03:33:39.961Z,91.70
2023-03-30T03:34:36.760Z,92.72
2023-03-30T03:35:34.033Z,92.76
2023-03-30T03:36:30.936Z,93.73
2023-03-30T03:37:27.787Z,94.36
2023-03-30T03:38:24.580Z,94.96
2023-03-30T03:39:21.596Z,95.26
2023-03-30T03:40:18.555Z,95.41
2023-03-30T03:41:15.604Z,95.20
2023-03-30T03:42:12.832Z,95.41
2023-03-30T03:43:09.734Z,95.39
2023-03-30T03:44:07.313Z,96.61
2023-03-30T03:45:08.021Z,96.32
2023-03-30T03:46:04.811Z,96.29
2023-03-30T03:47:01.663Z,97.30
2023-03-30T03:47:58.473Z,97.99
2023-03-30T03:48:55.312Z,97.79
2023-03-30T03:49:54.620Z,99.02
2023-03-30T03:50:54.223Z,97.88
2023-03-30T03:51:50.983Z,97.57
2023-03-30T03:52:47.812Z,98.67
2023-03-30T03:53:46.839Z,100.00
2023-03-30T03:54:43.641Z,99.34
2023-03-30T03:55:41.650Z,100.00
2023-03-30T03:56:38.538Z,100.00
2023-03-30T03:57:35.324Z,99.94
2023-03-30T03:58:32.068Z,100.00
2023-03-30T03:59:28.917Z,100.00
2023-03-30T04:00:26.776Z,100.00
2023-03-30T04:01:23.660Z,100.00
2023-03-30T04:02:23.437Z,100.00
2023-03-30T04:03:20.881Z,100.00
2023-03-30T04:04:20.630Z,100.00
2023-03-30T04:05:17.547Z,100.00
2023-03-30T04:06:14.384Z,100.00
2023-03-30T04:07:11.817Z,100.00
2023-03-30T04:08:10.923Z,100.00
2023-03-30T04:09:07.993Z,100.00
2023-03-30T04:10:05.775Z,100.00
2023-03-30T04:11:11.921Z,100.00
2023-03-30T04:12:08.747Z,100.00
2023-03-30T04:13:05.667Z,100.00
2023-03-30T04:14:02.633Z,100.00
2023-03-30T04:14:59.484Z,100.00
2023-03-30T04:15:56.273Z,100.00
2023-03-30T04:16:53.061Z,100.00
2023-03-30T04:17:50.374Z,100.00
2023-03-30T04:18:47.189Z,100.00
2023-03-30T04:19:43.987Z,100.00
2023-03-30T04:20:40.709Z,100.00
2023-03-30T04:21:41.050Z,100.00
2023-03-30T04:22:41.923Z,100.00
2023-03-30T04:23:40.189Z,100.00
2023-03-30T04:24:36.950Z,100.00
2023-03-30T04:25:33.859Z,100.00
2023-03-30T04:26:30.619Z,100.00
2023-03-30T04:27:28.759Z,100.00
2023-03-30T04:28:29.832Z,100.00
2023-03-30T04:29:26.630Z,100.00
2023-03-30T04:30:24.009Z,100.00
2023-03-30T04:31:22.804Z,100.00
2023-03-30T04:32:20.906Z,100.00
2023-03-30T04:33:18.057Z,100.00
2023-03-30T04:34:14.987Z,100.00
2023-03-30T04:35:11.902Z,100.00
2023-03-30T04:36:08.786Z,100.00
2023-03-30T04:37:07.391Z,100.00
2023-03-30T04:38:04.141Z,100.00
2023-03-30T04:39:01.084Z,100.00
2023-03-30T04:40:01.793Z,100.00
2023-03-30T04:41:02.362Z,100.00
2023-03-30T04:42:02.730Z,100.00
2023-03-30T04:43:02.437Z,100.00
2023-03-30T04:44:07.611Z,100.00
2023-03-30T04:45:09.078Z,100.00
2023-03-30T04:46:06.401Z,100.00
2023-03-30T04:47:03.210Z,100.00
2023-03-30T04:47:59.941Z,100.00
2023-03-30T04:48:57.283Z,100.00
2023-03-30T04:49:54.064Z,100.00
2023-03-30T04:50:51.832Z,100.00
2023-03-30T04:51:48.617Z,100.00
2023-03-30T04:52:45.432Z,100.00
2023-03-30T04:53:42.266Z,100.00
2023-03-30T04:54:39.049Z,100.00
2023-03-30T04:55:36.028Z,100.00
2023-03-30T04:56:32.765Z,100.00
2023-03-30T04:57:30.461Z,100.00
2023-03-30T04:58:27.366Z,100.00
2023-03-30T04:59:24.089Z,100.00
2023-03-30T05:00:21.253Z,100.00
2023-03-30T05:01:18.433Z,100.00
2023-03-30T05:02:16.600Z,100.00
2023-03-30T05:03:13.598Z,100.00
2023-03-30T05:04:10.539Z,100.00
2023-03-30T05:05:07.739Z,100.00
2023-03-30T05:06:04.721Z,100.00
2023-03-30T05:07:02.474Z,100.00
2023-03-30T05:07:59.776Z,100.00
2023-03-30T05:08:56.872Z,100.00
2023-03-30T05:09:53.801Z,100.00
2023-03-30T05:10:50.712Z,99.47
2023-03-30T05:11:47.486Z,99.27
2023-03-30T05:12:44.191Z,100.00
2023-03-30T05:13:41.953Z,100.00
2023-03-30T05:14:38.768Z,99.41
2023-03-30T05:15:35.848Z,99.88
2023-03-30T05:16:33.042Z,98.21
2023-03-30T05:17:34.024Z,97.78
2023-03-30T05:18:31.113Z,96.51
2023-03-30T05:19:27.957Z,97.64
2023-03-30T05:20:25.217Z,98.46
2023-03-30T05:21:22.183Z,98.85
2023-03-30T05:22:19.143Z,99.84
2023-03-30T05:23:16.210Z,98.21
2023-03-30T05:24:13.501Z,97.90
2023-03-30T05:25:10.421Z,98.69
2023-03-30T05:26:07.599Z,99.17
2023-03-30T05:27:05.164Z,98.66
2023-03-30T05:28:02.307Z,98.48
2023-03-30T05:28:59.504Z,96.92
2023-03-30T05:29:56.431Z,97.12
2023-03-30T05:30:55.030Z,97.49
2023-03-30T05:31:52.090Z,96.84
2023-03-30T05:32:48.908Z,94.65
2023-03-30T05:33:45.967Z,96.21
2023-03-30T05:34:42.756Z,95.14
2023-03-30T05:35:39.654Z,95.48
2023-03-30T05:36:36.507Z,95.64
2023-03-30T05:37:33.690Z,95.68
2023-03-30T05:38:30.458Z,96.56
2023-03-30T05:39:27.301Z,96.45
2023-03-30T05:40:24.098Z,96.88
2023-03-30T05:41:20.892Z,95.61
2023-03-30T05:42:17.735Z,95.74
2023-03-30T05:43:14.511Z,94.07
2023-03-30T05:44:11.364Z,93.22
2023-03-30T05:45:08.733Z,92.98
2023-03-30T05:46:07.288Z,93.63
2023-03-30T05:47:04.196Z,94.26
2023-03-30T05:48:01.101Z,93.03
2023-03-30T05:48:58.847Z,94.53
2023-03-30T05:49:55.792Z,95.41
2023-03-30T05:50:52.639Z,96.44
2023-03-30T05:51:49.492Z,95.64
2023-03-30T05:52:46.335Z,93.70
2023-03-30T05:53:43.063Z,92.80
2023-03-30T05:54:39.866Z,92.20
2023-03-30T05:55:36.611Z,91.97
2023-03-30T05:56:33.400Z,91.22
2023-03-30T05:57:30.453Z,90.88
2023-03-30T05:58:27.583Z,91.22
2023-03-30T05:59:24.652Z,93.27
2023-03-30T06:00:22.971Z,92.95
2023-03-30T06:01:21.409Z,94.04
2023-03-30T06:02:19.754Z,94.76
2023-03-30T06:03:17.223Z,95.48
2023-03-30T06:04:16.478Z,97.35
2023-03-30T06:05:13.573Z,97.78
2023-03-30T06:06:10.465Z,97.78
2023-03-30T06:07:07.929Z,98.29
2023-03-30T06:08:08.121Z,98.37
2023-03-30T06:09:05.837Z,98.89
2023-03-30T06:10:02.598Z,100.00
2023-03-30T06:10:59.848Z,100.00
2023-03-30T06:11:57.358Z,100.00
2023-03-30T06:12:54.165Z,100.00
2023-03-30T06:13:51.097Z,100.00
2023-03-30T06:14:47.827Z,100.00
2023-03-30T06:15:47.883Z,100.00
2023-03-30T06:16:44.707Z,100.00
2023-03-30T06:17:41.541Z,100.00
2023-03-30T06:18:38.742Z,100.00
2023-03-30T06:19:35.623Z,100.00
2023-03-30T06:20:32.456Z,100.00
2023-03-30T06:21:29.846Z,100.00
2023-03-30T06:22:28.046Z,100.00
2023-03-30T06:23:26.337Z,100.00
2023-03-30T06:24:23.212Z,100.00
2023-03-30T06:25:21.079Z,100.00
2023-03-30T06:26:17.901Z,100.00
2023-03-30T06:27:14.873Z,100.00
2023-03-30T06:28:11.680Z,100.00
2023-03-30T06:29:08.516Z,100.00
2023-03-30T06:30:06.874Z,100.00
2023-03-30T06:31:08.788Z,100.00
2023-03-30T06:32:06.084Z,100.00
2023-03-30T06:33:02.874Z,100.00
2023-03-30T06:33:59.842Z,100.00
2023-03-30T06:34:56.946Z,100.00
2023-03-30T06:35:54.418Z,100.00
2023-03-30T06:36:52.243Z,100.00
2023-03-30T06:37:49.087Z,100.00
2023-03-30T06:38:45.822Z,100.00
2023-03-30T06:39:42.559Z,100.00
2023-03-30T06:40:39.529Z,100.00
2023-03-30T06:41:36.471Z,100.00
2023-03-30T06:42:33.767Z,100.00
2023-03-30T06:43:30.596Z,100.00
2023-03-30T06:44:27.383Z,100.00
2023-03-30T06:45:24.422Z,100.00
2023-03-30T06:46:21.468Z,100.00
2023-03-30T06:47:19.468Z,100.00
2023-03-30T06:48:16.188Z,100.00
2023-03-30T06:49:13.133Z,100.00
2023-03-30T06:50:10.420Z,100.00
2023-03-30T06:51:07.683Z,100.00
2023-03-30T06:52:06.188Z,100.00
2023-03-30T06:53:04.567Z,100.00
2023-03-30T06:54:01.886Z,99.95
2023-03-30T06:54:58.773Z,99.31
2023-03-30T06:55:58.720Z,99.98
2023-03-30T06:56:55.670Z,100.00
2023-03-30T06:57:52.464Z,100.00
2023-03-30T06:58:49.281Z,100.00
2023-03-30T06:59:46.346Z,100.00
2023-03-30T07:00:43.113Z,100.00
2023-03-30T07:01:39.994Z,100.00
2023-03-30T07:02:37.027Z,100.00
2023-03-30T07:03:33.866Z,100.00
2023-03-30T07:04:30.794Z,100.00
2023-03-30T07:05:28.799Z,100.00
2023-03-30T07:06:25.674Z,100.00
2023-03-30T07:07:23.652Z,99.76
2023-03-30T07:08:20.472Z,99.01
2023-03-30T07:09:17.544Z,99.66
2023-03-30T07:10:14.388Z,97.77
2023-03-30T07:11:11.467Z,97.13
2023-03-30T07:12:08.438Z,98.20
2023-03-30T07:13:05.160Z,97.32
2023-03-30T07:14:02.473Z,97.27
2023-03-30T07:15:02.230Z,97.29
2023-03-30T07:15:59.091Z,96.09
2023-03-30T07:16:59.181Z,93.46
2023-03-30T07:17:56.105Z,91.11
2023-03-30T07:18:52.820Z,90.41
2023-03-30T07:19:49.727Z,91.82
2023-03-30T07:20:46.955Z,92.95
2023-03-30T07:21:43.700Z,92.42
2023-03-30T07:22:40.769Z,91.58
2023-03-30T07:23:37.559Z,91.23
2023-03-30T07:24:34.343Z,89.89
2023-03-30T07:25:31.696Z,90.76
2023-03-30T07:26:29.438Z,90.28
2023-03-30T07:27:27.279Z,88.66
2023-03-30T07:28:24.291Z,87.15
2023-03-30T07:29:21.199Z,88.80
2023-03-30T07:30:22.119Z,89.12
2023-03-30T07:31:20.344Z,90.79
2023-03-30T07:32:17.804Z,89.50
2023-03-30T07:33:33.623Z,89.06
2023-03-30T07:34:30.881Z,87.34
2023-03-30T07:35:27.707Z,86.74
2023-03-30T07:36:25.069Z,87.30
2023-03-30T07:37:21.834Z,88.55
2023-03-30T07:38:19.190Z,89.67
2023-03-30T07:39:16.045Z,88.72
2023-03-30T07:40:13.145Z,88.27
2023-03-30T07:41:13.196Z,87.61
2023-03-30T07:42:10.432Z,85.67
2023-03-30T07:43:07.873Z,84.51
2023-03-30T07:44:04.746Z,84.56
2023-03-30T07:45:01.808Z,84.16
2023-03-30T07:45:58.672Z,84.00
2023-03-30T07:46:56.100Z,82.32
2023-03-30T07:47:52.903Z,81.87
2023-03-30T07:48:49.955Z,81.26
2023-03-30T07:49:46.699Z,81.58
2023-03-30T07:50:43.402Z,80.82
2023-03-30T07:51:40.425Z,80.45
2023-03-30T07:52:38.104Z,79.48
2023-03-30T07:53:36.825Z,79.14
2023-03-30T07:54:33.962Z,78.05
2023-03-30T07:55:30.775Z,79.02
2023-03-30T07:56:27.470Z,79.51
2023-03-30T07:57:24.991Z,78.51
2023-03-30T07:58:22.117Z,77.99
2023-03-30T07:59:20.177Z,77.05
2023-03-30T08:00:17.142Z,77.62
2023-03-30T08:01:13.924Z,76.73
2023-03-30T08:02:14.348Z,76.14
2023-03-30T08:03:12.158Z,73.12
2023-03-30T08:04:09.220Z,73.46
2023-03-30T08:05:58.597Z,72.28
2023-03-30T08:08:43.626Z,71.12
2023-03-30T08:09:40.994Z,70.59
2023-03-30T08:10:37.823Z,69.03
2023-03-30T08:11:37.616Z,69.39
2023-03-30T08:12:34.708Z,69.54
2023-03-30T08:13:32.952Z,68.06
2023-03-30T08:14:29.832Z,67.51
2023-03-30T08:15:26.662Z,65.89
2023-03-30T08:16:23.604Z,64.85
2023-03-30T08:17:21.259Z,64.98
2023-03-30T08:18:18.910Z,66.49
2023-03-30T08:19:15.731Z,66.03
2023-03-30T08:20:13.020Z,65.64
2023-03-30T08:21:11.153Z,67.17
2023-03-30T08:22:07.928Z,67.26
2023-03-30T08:23:06.186Z,67.32
2023-03-30T08:24:02.969Z,68.11
2023-03-30T08:24:59.708Z,67.28
2023-03-30T08:25:57.806Z,65.54
2023-03-30T08:26:57.338Z,66.09
2023-03-30T08:27:54.290Z,66.88
2023-03-30T08:28:51.294Z,66.68
2023-03-30T08:29:48.941Z,66.65
2023-03-30T08:30:46.173Z,66.92
2023-03-30T08:31:43.380Z,65.05
2023-03-30T08:32:40.273Z,64.12
2023-03-30T08:33:37.118Z,65.32
2023-03-30T08:34:36.106Z,65.34
2023-03-30T08:35:34.191Z,64.09
2023-03-30T08:36:31.856Z,63.84
2023-03-30T08:37:28.679Z,63.20
2023-03-30T08:38:25.880Z,63.63
2023-03-30T08:39:22.707Z,62.17
2023-03-30T08:40:20.717Z,62.50
2023-03-30T08:41:29.662Z,62.62
2023-03-30T08:42:40.933Z,61.28
2023-03-30T08:43:51.001Z,60.11
2023-03-30T08:44:55.877Z,61.56
2023-03-30T08:45:53.101Z,61.78
2023-03-30T08:46:51.293Z,61.79
2023-03-30T08:47:52.725Z,60.65
2023-03-30T08:48:52.645Z,60.92
2023-03-30T08:50:22.864Z,60.62
2023-03-30T08:51:34.131Z,61.45
2023-03-30T08:52:30.990Z,61.84
2023-03-30T08:53:33.731Z,61.73
2023-03-30T08:54:33.833Z,61.36
2023-03-30T08:55:42.979Z,61.99
2023-03-30T08:56:48.006Z,61.37
2023-03-30T08:57:59.722Z,61.42
2023-03-30T08:59:27.636Z,60.98
2023-03-30T09:00:31.022Z,60.14
2023-03-30T09:01:37.024Z,60.38
2023-03-30T09:02:43.923Z,59.89
2023-03-30T09:04:04.125Z,59.81
2023-03-30T09:05:22.653Z,59.42
2023-03-30T09:06:59.633Z,58.81
2023-03-30T09:08:09.694Z,59.86
2023-03-30T09:09:14.136Z,60.43
2023-03-30T09:10:13.982Z,59.80
2023-03-30T09:11:16.974Z,58.11
2023-03-30T09:12:13.633Z,57.66
2023-03-30T09:13:17.264Z,56.78
2023-03-30T09:14:29.144Z,55.39
2023-03-30T09:15:31.948Z,54.88
2023-03-30T09:16:57.512Z,54.86
2023-03-30T09:18:04.551Z,55.84
2023-03-30T09:19:08.696Z,55.48
2023-03-30T09:20:22.534Z,55.25
2023-03-30T09:21:23.480Z,55.77
2023-03-30T09:22:25.024Z,56.10
2023-03-30T09:23:22.495Z,55.20
2023-03-30T09:24:27.567Z,55.10
2023-03-30T09:25:46.114Z,55.47
2023-03-30T09:26:59.953Z,56.69
2023-03-30T09:28:02.559Z,55.91
2023-03-30T09:29:02.125Z,55.10
2023-03-30T09:30:15.513Z,55.20
2023-03-30T09:31:23.809Z,54.27
2023-03-30T09:32:40.912Z,54.22
2023-03-30T09:33:43.923Z,53.38
2023-03-30T09:34:47.325Z,52.79
2023-03-30T09:35:59.606Z,53.21
2023-03-30T09:37:10.010Z,51.97
2023-03-30T09:38:11.395Z,52.35
2023-03-30T09:39:21.557Z,51.27
2023-03-30T09:41:04.956Z,51.35
2023-03-30T09:42:20.348Z,52.10
2023-03-30T09:43:30.967Z,50.71
2023-03-30T09:44:35.965Z,51.50
2023-03-30T09:45:34.509Z,50.71
2023-03-30T09:46:32.230Z,50.65
2023-03-30T09:47:38.985Z,49.94
2023-03-30T09:48:54.433Z,50.21
2023-03-30T09:50:24.616Z,49.04
2023-03-30T09:51:30.701Z,48.36
2023-03-30T09:52:32.180Z,48.75
2023-03-30T09:53:30.219Z,48.70
2023-03-30T09:54:38.481Z,49.15
2023-03-30T09:55:37.476Z,48.68
2023-03-30T09:56:46.968Z,48.19
2023-03-30T09:57:43.878Z,49.09
2023-03-30T09:58:41.566Z,49.37
2023-03-30T09:59:38.372Z,49.34
2023-03-30T10:00:35.383Z,48.19
2023-03-30T10:01:38.219Z,48.38
2023-03-30T10:02:35.524Z,48.56
2023-03-30T10:03:33.513Z,49.07
2023-03-30T10:04:30.459Z,48.51
2023-03-30T10:05:28.756Z,48.47
2023-03-30T10:06:25.647Z,49.35
2023-03-30T10:07:22.565Z,48.89
2023-03-30T10:08:24.992Z,48.39
2023-03-30T10:09:24.196Z,49.71
2023-03-30T10:10:20.909Z,49.94
2023-03-30T10:11:31.922Z,50.08
2023-03-30T10:12:30.585Z,49.14
2023-03-30T10:13:41.419Z,49.67
2023-03-30T10:14:38.409Z,48.97
2023-03-30T10:15:39.495Z,48.87
2023-03-30T10:16:36.969Z,48.94
2023-03-30T10:17:33.957Z,48.59
2023-03-30T10:18:41.037Z,48.57
2023-03-30T10:19:45.297Z,49.36
2023-03-30T10:20:52.063Z,48.97
2023-03-30T10:21:55.113Z,49.88
2023-03-30T10:22:54.054Z,49.51
2023-03-30T10:24:03.085Z,49.26
2023-03-30T10:25:10.460Z,49.02
2023-03-30T10:26:21.772Z,48.81
2023-03-30T10:27:19.771Z,48.32
2023-03-30T10:28:30.998Z,48.10
2023-03-30T10:29:29.691Z,48.05
2023-03-30T10:30:28.000Z,48.28
2023-03-30T10:31:28.160Z,48.94
2023-03-30T10:32:31.657Z,48.03
2023-03-30T10:33:31.187Z,48.45
2023-03-30T10:34:30.676Z,47.09
2023-03-30T10:35:38.585Z,47.27
2023-03-30T10:36:39.942Z,46.60
2023-03-30T10:37:42.948Z,45.82
2023-03-30T10:38:42.505Z,44.83
2023-03-30T10:39:43.575Z,45.04
2023-03-30T10:40:44.165Z,45.94
2023-03-30T10:41:43.077Z,46.29
2023-03-30T10:42:40.965Z,46.60
2023-03-30T10:43:39.337Z,46.52
2023-03-30T10:44:47.797Z,46.07
2023-03-30T10:45:49.084Z,46.59
2023-03-30T10:46:49.337Z,46.06
2023-03-30T10:48:24.805Z,46.42
2023-03-30T10:49:48.018Z,45.62
2023-03-30T10:50:47.897Z,46.17
2023-03-30T10:52:06.234Z,46.05
2023-03-30T10:53:30.494Z,45.79
2023-03-30T10:54:34.806Z,46.53
2023-03-30T10:55:59.700Z,46.68
2023-03-30T10:57:28.757Z,45.87
2023-03-30T10:58:26.405Z,45.99
2023-03-30T10:59:41.664Z,45.76
2023-03-30T11:00:38.481Z,45.96
2023-03-30T11:02:11.426Z,45.96
2023-03-30T11:03:20.972Z,45.77
2023-03-30T11:04:31.871Z,44.87
2023-03-30T11:05:37.711Z,45.40
2023-03-30T11:06:41.733Z,44.88
2023-03-30T11:07:54.928Z,44.70
2023-03-30T11:08:57.822Z,44.83
2023-03-30T11:10:03.112Z,45.18
2023-03-30T11:11:00.553Z,45.22
2023-03-30T11:12:20.659Z,45.18
2023-03-30T11:13:41.523Z,45.68
2023-03-30T11:15:16.534Z,45.60
2023-03-30T11:16:34.565Z,46.19
2023-03-30T11:17:48.720Z,45.40
2023-03-30T11:18:54.532Z,45.48
2023-03-30T11:20:01.701Z,46.66
2023-03-30T11:21:08.266Z,45.57
2023-03-30T11:22:23.698Z,46.69
2023-03-30T11:23:32.587Z,46.33
2023-03-30T11:24:29.449Z,45.90
2023-03-30T11:25:34.305Z,46.32
2023-03-30T11:26:39.268Z,46.34
2023-03-30T11:27:54.366Z,46.22
2023-03-30T11:29:24.248Z,46.58
2023-03-30T11:30:31.636Z,46.06
2023-03-30T11:31:49.395Z,45.64
2023-03-30T11:33:00.231Z,46.27
2023-03-30T11:34:08.812Z,45.42
2023-03-30T11:35:17.557Z,45.67
2023-03-30T11:36:23.958Z,45.83
2023-03-30T11:37:33.860Z,45.92
2023-03-30T11:38:55.795Z,45.57
2023-03-30T11:40:08.392Z,45.71
2023-03-30T11:41:20.711Z,45.71
2023-03-30T11:42:27.190Z,45.62
2023-03-30T11:43:30.137Z,45.43
2023-03-30T11:44:27.653Z,45.60
2023-03-30T11:45:56.317Z,45.90
2023-03-30T11:47:05.394Z,46.11
2023-03-30T11:48:41.120Z,45.55
2023-03-30T11:50:07.442Z,45.97
2023-03-30T11:51:22.290Z,45.90
2023-03-30T11:52:35.546Z,46.25
2023-03-30T11:54:00.661Z,46.20
2023-03-30T11:55:15.652Z,45.84
2023-03-30T11:56:35.174Z,46.16
2023-03-30T11:57:44.820Z,46.50
2023-03-30T11:58:49.086Z,46.46
2023-03-30T12:00:22.858Z,46.71
2023-03-30T12:01:58.004Z,45.98
2023-03-30T12:03:09.975Z,45.69
2023-03-30T12:04:13.178Z,45.57
2023-03-30T12:05:27.305Z,45.50
2023-03-30T12:06:45.888Z,46.30
2023-03-30T12:07:57.861Z,46.33
2023-03-30T12:09:19.259Z,46.16
2023-03-30T12:10:27.179Z,45.90
2023-03-30T12:11:32.730Z,45.93
2023-03-30T12:12:36.357Z,46.15
2023-03-30T12:13:41.291Z,45.79
2023-03-30T12:15:07.029Z,46.13
2023-03-30T12:16:20.328Z,45.74
2023-03-30T12:17:56.519Z,46.84
2023-03-30T12:19:05.084Z,46.01
2023-03-30T12:20:11.254Z,46.17
2023-03-30T12:21:49.049Z,46.74
2023-03-30T12:22:56.472Z,46.28
2023-03-30T12:24:05.118Z,46.42
2023-03-30T12:25:30.640Z,45.07
2023-03-30T12:26:35.191Z,44.68
2023-03-30T12:27:35.727Z,44.40
2023-03-30T12:29:36.041Z,44.13
2023-03-30T12:30:50.823Z,44.92
2023-03-30T12:31:58.918Z,44.51
2023-03-30T12:33:19.765Z,44.13
2023-03-30T12:34:17.796Z,43.45
2023-03-30T12:35:48.868Z,42.93
2023-03-30T12:36:58.170Z,42.66
2023-03-30T12:37:57.338Z,43.45
2023-03-30T12:39:02.340Z,43.56
2023-03-30T12:40:14.605Z,42.71
2023-03-30T12:41:16.836Z,43.09
2023-03-30T12:42:35.818Z,42.79
2023-03-30T12:44:09.134Z,42.88
2023-03-30T12:45:31.655Z,42.89
2023-03-30T12:46:53.083Z,42.92
2023-03-30T12:48:14.775Z,43.58
2023-03-30T12:49:32.747Z,43.57
2023-03-30T12:50:46.963Z,42.92
2023-03-30T12:51:58.161Z,43.48
2023-03-30T12:53:03.552Z,43.38
2023-03-30T12:54:33.187Z,44.24
2023-03-30T12:55:55.066Z,43.62
2023-03-30T12:57:13.474Z,43.19
2023-03-30T12:58:47.844Z,42.81
2023-03-30T13:00:04.279Z,43.16
2023-03-30T13:01:20.004Z,42.47
2023-03-30T13:02:25.894Z,42.30
2023-03-30T13:03:37.765Z,42.66
2023-03-30T13:04:40.465Z,42.40
2023-03-30T13:05:43.425Z,42.96
2023-03-30T13:06:52.324Z,42.88
2023-03-30T13:07:53.664Z,42.81
2023-03-30T13:08:56.932Z,41.98
2023-03-30T13:09:58.265Z,42.22
2023-03-30T13:11:15.967Z,42.74
2023-03-30T13:12:27.862Z,42.86
2023-03-30T13:13:57.936Z,42.74
2023-03-30T13:15:05.424Z,42.56
2023-03-30T13:16:02.433Z,42.72
2023-03-30T13:17:08.303Z,42.35
2023-03-30T13:18:31.957Z,42.49
2023-03-30T13:19:37.243Z,41.80
2023-03-30T13:20:36.730Z,41.82
2023-03-30T13:21:47.788Z,41.46
2023-03-30T13:23:09.299Z,41.70
2023-03-30T13:24:26.527Z,41.31
2023-03-30T13:25:39.539Z,41.06
2023-03-30T13:26:43.947Z,41.90
2023-03-30T13:27:41.896Z,41.58
2023-03-30T13:28:54.974Z,41.00
2023-03-30T13:30:03.945Z,40.92
2023-03-30T13:31:22.895Z,40.97
2023-03-30T13:32:31.551Z,41.09
2023-03-30T13:33:30.338Z,40.81
2023-03-30T13:34:43.484Z,41.15